createdAt,value
2019-01-08T00:00:23.069Z,0.00
2019-01-08T00:01:23.099Z,0.00
2019-01-08T00:02:23.071Z,0.00
2019-01-08T00:03:23.037Z,0.00
2019-01-08T00:04:23.041Z,0.00
2019-01-08T00:05:23.020Z,0.00
2019-01-08T00:06:23.010Z,0.00
2019-01-08T00:07:22.993Z,0.00
2019-01-08T00:08:22.993Z,0.00
2019-01-08T00:09:22.978Z,0.00
2019-01-08T00:10:22.957Z,0.00
2019-01-08T00:11:22.964Z,0.00
2019-01-08T00:12:22.987Z,0.00
2019-01-08T00:13:22.928Z,0.00
2019-01-08T00:14:22.940Z,0.00
2019-01-08T00:15:22.901Z,0.00
2019-01-08T00:16:22.977Z,0.00
2019-01-08T00:17:22.880Z,0.00
2019-01-08T00:18:22.870Z,0.00
2019-01-08T00:19:22.881Z,0.00
2019-01-08T00:20:22.855Z,0.00
2019-01-08T00:21:22.866Z,0.00
2019-01-08T00:22:22.822Z,0.00
2019-01-08T00:23:22.812Z,0.00
2019-01-08T00:24:22.839Z,0.00
2019-01-08T00:25:22.791Z,0.00
2019-01-08T00:26:22.791Z,0.00
2019-01-08T00:27:22.766Z,0.00
2019-01-08T00:28:22.755Z,0.00
2019-01-08T00:29:22.754Z,0.00
2019-01-08T00:30:22.743Z,0.00
2019-01-08T00:31:22.726Z,0.00
2019-01-08T00:32:22.730Z,0.00
2019-01-08T00:33:22.700Z,0.00
2019-01-08T00:34:22.719Z,0.00
2019-01-08T00:35:22.676Z,0.00
2019-01-08T00:36:22.679Z,0.00
2019-01-08T00:37:22.659Z,0.00
2019-01-08T00:38:22.658Z,0.00
2019-01-08T00:39:22.643Z,0.00
2019-01-08T00:40:22.621Z,0.00
2019-01-08T00:41:22.626Z,0.00
2019-01-08T00:42:22.630Z,0.00
2019-01-08T00:43:22.593Z,0.00
2019-01-08T00:44:22.606Z,0.00
2019-01-08T00:45:22.566Z,0.00
2019-01-08T00:46:22.555Z,0.00
2019-01-08T00:47:22.544Z,0.00
2019-01-08T00:48:22.559Z,0.00
2019-01-08T00:49:22.586Z,0.00
2019-01-08T00:50:22.513Z,0.00
2019-01-08T00:51:22.501Z,0.00
2019-01-08T00:52:22.489Z,0.00
2019-01-08T00:53:22.476Z,0.00
2019-01-08T00:54:22.463Z,0.00
2019-01-08T00:55:22.474Z,0.00
2019-01-08T00:56:22.446Z,0.00
2019-01-08T00:57:22.444Z,0.00
2019-01-08T00:58:22.425Z,0.00
2019-01-08T00:59:22.411Z,0.00
2019-01-08T01:00:22.418Z,0.00
2019-01-08T01:01:22.399Z,0.00
2019-01-08T01:02:22.376Z,0.00
2019-01-08T01:03:22.364Z,0.00
2019-01-08T01:04:22.355Z,0.00
2019-01-08T01:05:22.356Z,0.00
2019-01-08T01:06:22.334Z,0.00
2019-01-08T01:07:22.353Z,0.00
2019-01-08T01:08:22.313Z,0.00
2019-01-08T01:09:22.295Z,0.00
2019-01-08T01:10:22.299Z,0.00
2019-01-08T01:11:22.275Z,0.00
2019-01-08T01:12:22.264Z,0.00
2019-01-08T01:13:22.255Z,0.00
2019-01-08T01:14:22.251Z,0.00
2019-01-08T01:15:22.560Z,0.00
2019-01-08T01:16:22.217Z,0.00
2019-01-08T01:17:22.207Z,0.00
2019-01-08T01:18:22.196Z,0.00
2019-01-08T01:19:22.185Z,0.00
2019-01-08T01:20:22.205Z,0.00
2019-01-08T01:21:22.189Z,0.00
2019-01-08T01:22:22.152Z,0.00
2019-01-08T01:23:22.157Z,0.00
2019-01-08T01:24:22.142Z,0.00
2019-01-08T01:25:22.133Z,0.00
2019-01-08T01:26:22.108Z,0.00
2019-01-08T01:27:22.097Z,0.00
2019-01-08T01:28:22.084Z,0.00
2019-01-08T01:29:22.077Z,0.00
2019-01-08T01:30:22.090Z,0.00
2019-01-08T01:31:22.050Z,0.00
2019-01-08T01:32:22.058Z,0.00
2019-01-08T01:33:22.088Z,0.00
2019-01-08T01:34:22.019Z,0.00
2019-01-08T01:35:22.017Z,0.00
2019-01-08T01:36:21.997Z,0.00
2019-01-08T01:37:21.985Z,0.00
2019-01-08T01:38:21.990Z,0.00
2019-01-08T01:39:21.962Z,0.00
2019-01-08T01:40:21.963Z,0.00
2019-01-08T01:41:21.940Z,0.00
2019-01-08T01:42:21.931Z,0.00
2019-01-08T01:43:21.940Z,0.00
2019-01-08T01:44:21.910Z,0.00
2019-01-08T01:45:21.916Z,0.00
2019-01-08T01:46:21.885Z,0.00
2019-01-08T01:47:21.873Z,0.00
2019-01-08T01:48:21.865Z,0.00
2019-01-08T01:49:21.877Z,0.00
2019-01-08T01:50:21.850Z,0.00
2019-01-08T01:51:21.858Z,0.00
2019-01-08T01:52:21.835Z,0.00
2019-01-08T01:53:21.831Z,0.00
2019-01-08T01:54:21.811Z,0.00
2019-01-08T01:55:21.783Z,0.00
2019-01-08T01:56:21.791Z,0.00
2019-01-08T01:57:21.786Z,0.00
2019-01-08T01:58:21.750Z,0.00
2019-01-08T01:59:21.753Z,0.00
2019-01-08T02:00:21.748Z,0.00
2019-01-08T02:01:21.727Z,0.00
2019-01-08T02:02:21.706Z,0.00
2019-01-08T02:03:21.726Z,0.00
2019-01-08T02:04:21.691Z,0.00
2019-01-08T02:05:21.672Z,0.00
2019-01-08T02:06:21.694Z,0.00
2019-01-08T02:07:21.649Z,0.00
2019-01-08T02:08:21.650Z,0.00
2019-01-08T02:09:21.703Z,0.00
2019-01-08T02:10:21.618Z,0.00
2019-01-08T02:11:21.618Z,0.00
2019-01-08T02:12:21.593Z,0.00
2019-01-08T02:13:21.582Z,0.00
2019-01-08T02:14:21.581Z,0.00
2019-01-08T02:15:21.573Z,0.00
2019-01-08T02:16:21.582Z,0.00
2019-01-08T02:17:21.660Z,0.00
2019-01-08T02:18:21.534Z,0.00
2019-01-08T02:19:21.516Z,0.00
2019-01-08T02:20:21.510Z,0.00
2019-01-08T02:21:21.510Z,0.00
2019-01-08T02:22:21.488Z,0.00
2019-01-08T02:23:21.497Z,0.00
2019-01-08T02:24:21.464Z,0.00
2019-01-08T02:25:21.447Z,0.00
2019-01-08T02:26:21.466Z,0.00
2019-01-08T02:27:21.425Z,0.00
2019-01-08T02:28:21.419Z,0.00
2019-01-08T02:29:21.414Z,0.00
2019-01-08T02:30:21.393Z,0.00
2019-01-08T02:31:21.412Z,0.00
2019-01-08T02:32:22.123Z,0.00
2019-01-08T02:33:21.358Z,0.00
2019-01-08T02:34:21.354Z,0.00
2019-01-08T02:35:21.352Z,0.00
2019-01-08T02:36:21.326Z,0.00
2019-01-08T02:37:21.329Z,0.00
2019-01-08T02:38:21.301Z,0.00
2019-01-08T02:39:21.327Z,0.00
2019-01-08T02:40:21.297Z,0.00
2019-01-08T02:41:21.297Z,0.00
2019-01-08T02:42:21.291Z,0.00
2019-01-08T02:43:21.248Z,0.00
2019-01-08T02:44:21.234Z,0.00
2019-01-08T02:45:21.231Z,0.00
2019-01-08T02:46:21.367Z,0.00
2019-01-08T02:47:21.235Z,0.00
2019-01-08T02:48:21.192Z,0.00
2019-01-08T02:49:21.183Z,0.00
2019-01-08T02:50:21.169Z,0.00
2019-01-08T02:51:21.157Z,0.00
2019-01-08T02:52:21.180Z,0.00
2019-01-08T02:53:21.134Z,0.00
2019-01-08T02:54:21.266Z,0.00
2019-01-08T02:55:21.127Z,0.00
2019-01-08T02:56:21.106Z,0.00
2019-01-08T02:57:21.114Z,0.00
2019-01-08T02:58:21.084Z,0.00
2019-01-08T02:59:25.141Z,0.00
2019-01-08T03:00:21.063Z,0.00
2019-01-08T03:01:21.053Z,0.00
2019-01-08T03:02:21.046Z,0.00
2019-01-08T03:03:21.034Z,0.00
2019-01-08T03:04:21.017Z,0.00
2019-01-08T03:05:21.051Z,0.00
2019-01-08T03:06:20.998Z,0.00
2019-01-08T03:07:20.995Z,0.00
2019-01-08T03:08:20.969Z,0.00
2019-01-08T03:09:20.966Z,0.00
2019-01-08T03:10:20.960Z,0.00
2019-01-08T03:11:20.935Z,0.00
2019-01-08T03:12:20.941Z,0.00
2019-01-08T03:13:20.917Z,0.00
2019-01-08T03:14:20.904Z,0.00
2019-01-08T03:15:20.922Z,0.00
2019-01-08T03:16:20.880Z,0.00
2019-01-08T03:17:20.881Z,0.00
2019-01-08T03:18:20.859Z,0.00
2019-01-08T03:19:20.846Z,0.00
2019-01-08T03:20:20.870Z,0.00
2019-01-08T03:21:20.824Z,0.00
2019-01-08T03:22:20.841Z,0.00
2019-01-08T03:23:20.801Z,0.00
2019-01-08T03:24:20.816Z,0.00
2019-01-08T03:25:20.781Z,0.00
2019-01-08T03:26:20.771Z,0.00
2019-01-08T03:27:20.788Z,0.00
2019-01-08T03:28:20.749Z,0.00
2019-01-08T03:29:20.737Z,0.00
2019-01-08T03:30:20.729Z,0.00
2019-01-08T03:31:20.720Z,0.00
2019-01-08T03:32:20.729Z,0.00
2019-01-08T03:33:20.697Z,0.00
2019-01-08T03:34:20.680Z,0.00
2019-01-08T03:35:20.689Z,0.00
2019-01-08T03:36:20.673Z,0.00
2019-01-08T03:37:20.658Z,0.00
2019-01-08T03:38:20.671Z,0.00
2019-01-08T03:39:20.628Z,0.00
2019-01-08T03:40:20.610Z,0.00
2019-01-08T03:41:20.665Z,0.00
2019-01-08T03:42:20.639Z,0.00
2019-01-08T03:43:20.577Z,0.00
2019-01-08T03:44:20.574Z,0.00
2019-01-08T03:45:20.594Z,0.00
2019-01-08T03:46:20.548Z,0.00
2019-01-08T03:47:20.531Z,0.00
2019-01-08T03:48:20.572Z,0.00
2019-01-08T03:49:20.511Z,0.00
2019-01-08T03:50:20.502Z,0.00
2019-01-08T03:51:20.510Z,0.00
2019-01-08T03:52:20.479Z,0.00
2019-01-08T03:53:20.481Z,0.00
2019-01-08T03:54:20.456Z,0.00
2019-01-08T03:55:20.446Z,0.00
2019-01-08T03:56:20.433Z,0.00
2019-01-08T03:57:20.451Z,0.00
2019-01-08T03:58:20.424Z,0.00
2019-01-08T03:59:20.470Z,0.00
2019-01-08T04:00:20.392Z,0.00
2019-01-08T04:01:20.416Z,0.00
2019-01-08T04:02:20.366Z,0.00
2019-01-08T04:03:20.374Z,0.00
2019-01-08T04:04:20.362Z,0.00
2019-01-08T04:05:20.332Z,0.00
2019-01-08T04:06:20.331Z,0.00
2019-01-08T04:07:20.311Z,0.00
2019-01-08T04:08:20.315Z,0.00
2019-01-08T04:09:20.293Z,0.00
2019-01-08T04:10:20.281Z,0.00
2019-01-08T04:11:20.268Z,0.00
2019-01-08T04:12:20.288Z,0.00
2019-01-08T04:13:20.259Z,0.00
2019-01-08T04:14:20.246Z,0.00
2019-01-08T04:15:20.221Z,0.00
2019-01-08T04:16:20.230Z,0.00
2019-01-08T04:17:20.200Z,0.00
2019-01-08T04:18:20.200Z,0.00
2019-01-08T04:19:20.178Z,0.00
2019-01-08T04:20:20.191Z,0.00
2019-01-08T04:21:20.155Z,0.00
2019-01-08T04:22:20.151Z,0.00
2019-01-08T04:23:20.151Z,0.00
2019-01-08T04:24:20.160Z,0.00
2019-01-08T04:25:20.111Z,0.00
2019-01-08T04:26:20.108Z,0.00
2019-01-08T04:27:20.086Z,0.00
2019-01-08T04:28:20.105Z,0.00
2019-01-08T04:29:20.066Z,0.00
2019-01-08T04:30:20.063Z,0.00
2019-01-08T04:31:20.043Z,0.00
2019-01-08T04:32:20.032Z,0.00
2019-01-08T04:33:20.044Z,0.00
2019-01-08T04:34:20.054Z,0.00
2019-01-08T04:35:19.998Z,0.00
2019-01-08T04:36:19.986Z,0.00
2019-01-08T04:37:19.982Z,0.00
2019-01-08T04:38:20.000Z,0.00
2019-01-08T04:39:19.959Z,0.00
2019-01-08T04:40:19.943Z,0.00
2019-01-08T04:41:19.933Z,0.00
2019-01-08T04:42:19.922Z,0.00
2019-01-08T04:43:19.928Z,0.00
2019-01-08T04:44:19.925Z,0.00
2019-01-08T04:45:19.888Z,0.00
2019-01-08T04:46:19.876Z,0.00
2019-01-08T04:47:19.889Z,0.00
2019-01-08T04:48:19.858Z,0.00
2019-01-08T04:49:19.857Z,0.00
2019-01-08T04:50:19.831Z,0.00
2019-01-08T04:51:19.821Z,0.00
2019-01-08T04:52:19.807Z,0.00
2019-01-08T04:53:19.800Z,0.00
2019-01-08T04:54:19.801Z,0.00
2019-01-08T04:55:19.802Z,0.00
2019-01-08T04:56:19.766Z,0.00
2019-01-08T04:57:19.756Z,0.00
2019-01-08T04:58:19.747Z,0.00
2019-01-08T04:59:19.749Z,0.00
2019-01-08T05:00:19.722Z,0.00
2019-01-08T05:01:19.746Z,0.00
2019-01-08T05:02:19.698Z,0.00
2019-01-08T05:03:19.690Z,0.00
2019-01-08T05:04:19.690Z,0.00
2019-01-08T05:05:19.675Z,0.00
2019-01-08T05:06:19.658Z,0.00
2019-01-08T05:07:19.650Z,0.00
2019-01-08T05:08:19.634Z,0.00
2019-01-08T05:09:19.633Z,0.00
2019-01-08T05:10:19.631Z,0.00
2019-01-08T05:11:19.604Z,0.00
2019-01-08T05:12:19.630Z,0.00
2019-01-08T05:13:19.590Z,0.00
2019-01-08T05:14:19.575Z,0.00
2019-01-08T05:15:20.114Z,0.00
2019-01-08T05:16:19.548Z,0.00
2019-01-08T05:17:19.531Z,0.00
2019-01-08T05:18:19.538Z,0.00
2019-01-08T05:19:19.549Z,0.00
2019-01-08T05:20:19.497Z,0.00
2019-01-08T05:21:19.484Z,0.00
2019-01-08T05:22:19.481Z,0.00
2019-01-08T05:23:19.464Z,0.00
2019-01-08T05:24:19.477Z,0.00
2019-01-08T05:25:19.441Z,0.00
2019-01-08T05:26:19.434Z,0.00
2019-01-08T05:27:19.419Z,0.00
2019-01-08T05:28:19.464Z,0.00
2019-01-08T05:29:19.409Z,0.00
2019-01-08T05:30:19.401Z,0.00
2019-01-08T05:31:26.387Z,0.00
2019-01-08T05:32:19.368Z,0.00
2019-01-08T05:33:19.445Z,0.00
2019-01-08T05:34:19.352Z,0.00
2019-01-08T05:35:19.330Z,0.00
2019-01-08T05:36:19.407Z,0.00
2019-01-08T05:37:19.308Z,0.00
2019-01-08T05:38:19.296Z,0.00
2019-01-08T05:39:19.298Z,0.00
2019-01-08T05:40:19.275Z,0.00
2019-01-08T05:41:19.287Z,0.00
2019-01-08T05:42:19.252Z,0.00
2019-01-08T05:43:19.241Z,0.00
2019-01-08T05:44:19.250Z,0.00
2019-01-08T05:45:19.219Z,0.00
2019-01-08T05:46:19.209Z,0.00
2019-01-08T05:47:19.196Z,0.00
2019-01-08T05:48:19.184Z,0.00
2019-01-08T05:49:19.202Z,0.00
2019-01-08T05:50:19.183Z,0.00
2019-01-08T05:51:19.152Z,0.00
2019-01-08T05:52:19.139Z,0.00
2019-01-08T05:53:19.131Z,0.00
2019-01-08T05:54:19.138Z,0.00
2019-01-08T05:55:19.119Z,0.00
2019-01-08T05:56:19.113Z,0.00
2019-01-08T05:57:19.090Z,0.00
2019-01-08T05:58:19.139Z,0.00
2019-01-08T05:59:19.083Z,0.00
2019-01-08T06:00:19.056Z,0.00
2019-01-08T06:01:19.051Z,0.00
2019-01-08T06:02:19.030Z,0.00
2019-01-08T06:03:19.018Z,0.00
2019-01-08T06:04:19.037Z,0.00
2019-01-08T06:05:19.005Z,0.00
2019-01-08T06:06:18.989Z,0.00
2019-01-08T06:07:18.975Z,0.00
2019-01-08T06:08:18.962Z,0.00
2019-01-08T06:09:18.952Z,0.00
2019-01-08T06:10:18.961Z,0.00
2019-01-08T06:11:18.934Z,0.00
2019-01-08T06:12:18.922Z,0.00
2019-01-08T06:13:18.909Z,0.00
2019-01-08T06:14:18.921Z,0.00
2019-01-08T06:15:18.894Z,0.00
2019-01-08T06:16:18.876Z,0.00
2019-01-08T06:17:18.874Z,0.00
2019-01-08T06:18:18.855Z,0.00
2019-01-08T06:19:18.873Z,0.00
2019-01-08T06:20:18.841Z,0.00
2019-01-08T06:21:18.832Z,0.00
2019-01-08T06:22:18.804Z,0.00
2019-01-08T06:23:18.799Z,0.00
2019-01-08T06:24:18.798Z,0.00
2019-01-08T06:25:18.815Z,0.00
2019-01-08T06:26:18.768Z,0.00
2019-01-08T06:27:18.764Z,0.00
2019-01-08T06:28:18.745Z,0.00
2019-01-08T06:29:18.732Z,0.00
2019-01-08T06:30:24.763Z,0.00
2019-01-08T06:31:19.703Z,0.00
2019-01-08T06:32:18.701Z,0.00
2019-01-08T06:33:18.686Z,0.00
2019-01-08T06:34:18.674Z,0.00
2019-01-08T06:35:18.680Z,0.00
2019-01-08T06:36:18.660Z,0.00
2019-01-08T06:37:18.647Z,0.00
2019-01-08T06:38:18.632Z,0.00
2019-01-08T06:39:18.621Z,0.00
2019-01-08T06:40:18.627Z,0.00
2019-01-08T06:41:18.613Z,0.00
2019-01-08T06:42:18.603Z,0.00
2019-01-08T06:43:18.573Z,0.00
2019-01-08T06:44:18.566Z,0.00
2019-01-08T06:45:18.558Z,0.00
2019-01-08T06:46:18.575Z,0.00
2019-01-08T06:47:18.536Z,0.00
2019-01-08T06:48:18.515Z,0.00
2019-01-08T06:49:18.508Z,0.00
2019-01-08T06:50:18.509Z,0.00
2019-01-08T06:51:18.499Z,0.00
2019-01-08T06:52:18.497Z,0.00
2019-01-08T06:53:18.462Z,0.00
2019-01-08T06:54:18.450Z,0.00
2019-01-08T06:55:18.450Z,0.00
2019-01-08T06:56:18.442Z,0.00
2019-01-08T06:57:18.420Z,0.00
2019-01-08T06:58:18.406Z,0.00
2019-01-08T06:59:18.396Z,0.00
2019-01-08T07:00:18.384Z,0.00
2019-01-08T07:01:18.385Z,0.00
2019-01-08T07:02:18.363Z,0.00
2019-01-08T07:03:18.367Z,0.00
2019-01-08T07:04:18.342Z,0.00
2019-01-08T07:05:18.362Z,0.00
2019-01-08T07:06:18.336Z,0.00
2019-01-08T07:07:18.313Z,0.00
2019-01-08T07:08:18.294Z,0.00
2019-01-08T07:09:18.282Z,0.00
2019-01-08T07:10:18.321Z,0.00
2019-01-08T07:11:18.272Z,0.00
2019-01-08T07:12:18.253Z,0.00
2019-01-08T07:13:18.246Z,0.00
2019-01-08T07:14:18.227Z,0.00
2019-01-08T07:15:18.256Z,0.00
2019-01-08T07:16:18.221Z,0.00
2019-01-08T07:17:18.193Z,0.00
2019-01-08T07:18:18.194Z,0.00
2019-01-08T07:19:18.176Z,0.00
2019-01-08T07:20:18.166Z,0.00
2019-01-08T07:21:18.172Z,0.00
2019-01-08T07:22:18.137Z,0.00
2019-01-08T07:23:18.127Z,0.00
2019-01-08T07:24:18.120Z,0.00
2019-01-08T07:25:18.112Z,0.00
2019-01-08T07:26:18.118Z,0.00
2019-01-08T07:27:18.080Z,0.00
2019-01-08T07:28:18.085Z,0.00
2019-01-08T07:29:18.059Z,0.00
2019-01-08T07:30:18.050Z,0.00
2019-01-08T07:31:18.049Z,0.00
2019-01-08T07:32:18.035Z,0.00
2019-01-08T07:33:18.033Z,0.00
2019-01-08T07:34:18.005Z,0.00
2019-01-08T07:35:18.004Z,0.00
2019-01-08T07:36:18.013Z,0.00
2019-01-08T07:37:17.987Z,0.00
2019-01-08T07:38:18.011Z,0.00
2019-01-08T07:39:17.948Z,0.00
2019-01-08T07:40:17.942Z,0.00
2019-01-08T07:41:17.941Z,0.00
2019-01-08T07:42:17.938Z,0.00
2019-01-08T07:43:17.918Z,0.00
2019-01-08T07:44:17.894Z,0.00
2019-01-08T07:45:17.885Z,0.00
2019-01-08T07:46:17.871Z,0.00
2019-01-08T07:47:17.879Z,0.00
2019-01-08T07:48:17.850Z,0.00
2019-01-08T07:49:17.842Z,0.00
2019-01-08T07:50:17.832Z,0.00
2019-01-08T07:51:17.827Z,0.00
2019-01-08T07:52:17.818Z,0.00
2019-01-08T07:53:17.794Z,0.00
2019-01-08T07:54:17.864Z,0.00
2019-01-08T07:55:17.770Z,0.00
2019-01-08T07:56:17.773Z,0.00
2019-01-08T07:57:17.770Z,0.00
2019-01-08T07:58:17.738Z,0.00
2019-01-08T07:59:17.735Z,0.00
2019-01-08T08:00:17.718Z,0.00
2019-01-08T08:01:17.703Z,0.00
2019-01-08T08:02:17.725Z,0.00
2019-01-08T08:03:17.682Z,4.00
2019-01-08T08:04:17.688Z,4.00
2019-01-08T08:05:17.664Z,0.00
2019-01-08T08:06:17.648Z,4.00
2019-01-08T08:07:17.649Z,0.00
2019-01-08T08:08:17.625Z,0.00
2019-01-08T08:09:17.621Z,0.00
2019-01-08T08:10:17.610Z,0.00
2019-01-08T08:11:17.613Z,0.00
2019-01-08T08:12:17.612Z,0.00
2019-01-08T08:13:17.611Z,0.00
2019-01-08T08:14:17.600Z,0.00
2019-01-08T08:15:17.546Z,0.00
2019-01-08T08:16:17.539Z,4.00
2019-01-08T08:17:17.626Z,4.00
2019-01-08T08:18:17.545Z,4.00
2019-01-08T08:19:17.503Z,4.00
2019-01-08T08:20:17.496Z,4.00
2019-01-08T08:21:17.487Z,4.00
2019-01-08T08:22:17.497Z,4.00
2019-01-08T08:23:17.466Z,0.00
2019-01-08T08:24:17.455Z,0.00
2019-01-08T08:25:17.477Z,0.00
2019-01-08T08:26:17.428Z,4.00
2019-01-08T08:27:17.422Z,0.00
2019-01-08T08:28:17.421Z,0.00
2019-01-08T08:29:17.393Z,4.00
2019-01-08T08:30:17.387Z,4.00
2019-01-08T08:31:17.373Z,4.00
2019-01-08T08:32:17.375Z,0.00
2019-01-08T08:33:17.361Z,4.00
2019-01-08T08:34:17.341Z,0.00
2019-01-08T08:35:17.326Z,4.00
2019-01-08T08:36:17.315Z,4.00
2019-01-08T08:37:17.336Z,4.00
2019-01-08T08:38:17.319Z,4.00
2019-01-08T08:39:17.280Z,4.00
2019-01-08T08:40:17.270Z,4.00
2019-01-08T08:41:17.287Z,4.00
2019-01-08T08:42:17.274Z,4.00
2019-01-08T08:43:17.257Z,4.00
2019-01-08T08:44:18.485Z,8.00
2019-01-08T08:45:17.213Z,4.00
2019-01-08T08:46:17.212Z,4.00
2019-01-08T08:47:17.191Z,4.00
2019-01-08T08:48:17.195Z,8.00
2019-01-08T08:49:17.179Z,8.00
2019-01-08T08:50:17.258Z,8.00
2019-01-08T08:51:17.148Z,8.00
2019-01-08T08:52:17.142Z,4.00
2019-01-08T08:53:17.134Z,8.00
2019-01-08T08:54:17.155Z,8.00
2019-01-08T08:55:17.146Z,8.00
2019-01-08T08:56:17.108Z,8.00
2019-01-08T08:57:17.078Z,8.00
2019-01-08T08:58:17.128Z,4.00
2019-01-08T08:59:17.059Z,4.00
2019-01-08T09:00:17.070Z,4.00
2019-01-08T09:01:17.062Z,4.00
2019-01-08T09:02:17.023Z,8.00
2019-01-08T09:03:17.024Z,8.00
2019-01-08T09:04:17.001Z,4.00
2019-01-08T09:05:16.990Z,4.00
2019-01-08T09:06:17.003Z,8.00
2019-01-08T09:07:17.015Z,8.00
2019-01-08T09:08:16.967Z,8.00
2019-01-08T09:09:16.945Z,4.00
2019-01-08T09:10:16.933Z,8.00
2019-01-08T09:11:16.925Z,12.00
2019-01-08T09:12:16.912Z,8.00
2019-01-08T09:13:16.992Z,8.00
2019-01-08T09:14:16.890Z,8.00
2019-01-08T09:15:16.877Z,8.00
2019-01-08T09:16:16.866Z,8.00
2019-01-08T09:17:16.855Z,8.00
2019-01-08T09:18:16.879Z,8.00
2019-01-08T09:19:16.835Z,12.00
2019-01-08T09:20:16.853Z,12.00
2019-01-08T09:21:16.813Z,8.00
2019-01-08T09:22:16.830Z,12.00
2019-01-08T09:23:16.789Z,8.00
2019-01-08T09:24:16.798Z,4.00
2019-01-08T09:25:16.765Z,8.00
2019-01-08T09:26:16.788Z,12.00
2019-01-08T09:27:16.744Z,8.00
2019-01-08T09:28:16.814Z,12.00
2019-01-08T09:29:16.732Z,12.00
2019-01-08T09:30:16.718Z,16.00
2019-01-08T09:31:16.706Z,12.00
2019-01-08T09:32:16.690Z,20.00
2019-01-08T09:33:16.681Z,16.00
2019-01-08T09:34:16.684Z,12.00
2019-01-08T09:35:16.666Z,20.00
2019-01-08T09:36:16.690Z,20.00
2019-01-08T09:37:16.631Z,16.00
2019-01-08T09:38:16.625Z,12.00
2019-01-08T09:39:16.627Z,8.00
2019-01-08T09:40:16.599Z,12.00
2019-01-08T09:41:16.597Z,8.00
2019-01-08T09:42:16.611Z,12.00
2019-01-08T09:43:16.564Z,8.00
2019-01-08T09:44:16.566Z,8.00
2019-01-08T09:45:16.542Z,12.00
2019-01-08T09:46:16.553Z,12.00
2019-01-08T09:47:16.522Z,8.00
2019-01-08T09:48:16.590Z,12.00
2019-01-08T09:49:16.539Z,12.00
2019-01-08T09:50:16.493Z,12.00
2019-01-08T09:51:16.481Z,16.00
2019-01-08T09:52:16.467Z,12.00
2019-01-08T09:53:16.523Z,12.00
2019-01-08T09:54:16.453Z,8.00
2019-01-08T09:55:16.430Z,12.00
2019-01-08T09:56:16.430Z,12.00
2019-01-08T09:57:16.492Z,12.00
2019-01-08T09:58:16.403Z,20.00
2019-01-08T09:59:16.434Z,20.00
2019-01-08T10:00:16.380Z,16.00
2019-01-08T10:01:23.603Z,8.00
2019-01-08T10:02:17.351Z,8.00
2019-01-08T10:03:16.343Z,12.00
2019-01-08T10:04:16.349Z,12.00
2019-01-08T10:05:16.319Z,8.00
2019-01-08T10:06:16.308Z,8.00
2019-01-08T10:07:16.304Z,8.00
2019-01-08T10:08:16.289Z,8.00
2019-01-08T10:09:16.304Z,12.00
2019-01-08T10:10:16.267Z,16.00
2019-01-08T10:11:16.261Z,20.00
2019-01-08T10:12:16.273Z,16.00
2019-01-08T10:13:16.231Z,16.00
2019-01-08T10:14:16.252Z,16.00
2019-01-08T10:15:16.207Z,12.00
2019-01-08T10:16:16.203Z,12.00
2019-01-08T10:17:16.193Z,12.00
2019-01-08T10:18:16.181Z,8.00
2019-01-08T10:19:16.175Z,8.00
2019-01-08T10:20:16.158Z,12.00
2019-01-08T10:21:16.142Z,16.00
2019-01-08T10:22:16.141Z,16.00
2019-01-08T10:23:16.119Z,24.00
2019-01-08T10:24:16.121Z,24.00
2019-01-08T10:25:16.102Z,24.00
2019-01-08T10:26:16.085Z,16.00
2019-01-08T10:27:16.074Z,12.00
2019-01-08T10:28:16.115Z,16.00
2019-01-08T10:29:16.069Z,16.00
2019-01-08T10:30:16.052Z,16.00
2019-01-08T10:31:16.048Z,20.00
2019-01-08T10:32:16.025Z,24.00
2019-01-08T10:33:16.020Z,32.00
2019-01-08T10:34:16.043Z,28.00
2019-01-08T10:35:15.987Z,20.00
2019-01-08T10:36:15.983Z,20.00
2019-01-08T10:37:15.963Z,16.00
2019-01-08T10:38:15.951Z,16.00
2019-01-08T10:39:15.944Z,16.00
2019-01-08T10:40:15.945Z,16.00
2019-01-08T10:41:15.925Z,16.00
2019-01-08T10:42:15.925Z,16.00
2019-01-08T10:43:15.895Z,16.00
2019-01-08T10:44:15.892Z,12.00
2019-01-08T10:45:15.901Z,12.00
2019-01-08T10:46:15.865Z,16.00
2019-01-08T10:47:15.852Z,12.00
2019-01-08T10:48:15.855Z,12.00
2019-01-08T10:49:15.829Z,8.00
2019-01-08T10:50:15.866Z,8.00
2019-01-08T10:51:15.821Z,8.00
2019-01-08T10:52:15.798Z,8.00
2019-01-08T10:53:15.786Z,8.00
2019-01-08T10:54:15.777Z,8.00
2019-01-08T10:55:15.773Z,8.00
2019-01-08T10:56:15.757Z,8.00
2019-01-08T10:57:15.741Z,12.00
2019-01-08T10:58:15.771Z,12.00
2019-01-08T10:59:15.726Z,16.00
2019-01-08T11:00:15.719Z,16.00
2019-01-08T11:01:15.702Z,12.00
2019-01-08T11:02:15.688Z,12.00
2019-01-08T11:03:15.682Z,12.00
2019-01-08T11:04:15.670Z,8.00
2019-01-08T11:05:15.679Z,12.00
2019-01-08T11:06:15.641Z,12.00
2019-01-08T11:07:15.627Z,16.00
2019-01-08T11:08:15.641Z,12.00
2019-01-08T11:09:15.611Z,16.00
2019-01-08T11:10:15.608Z,16.00
2019-01-08T11:11:15.587Z,16.00
2019-01-08T11:12:15.572Z,20.00
2019-01-08T11:13:15.562Z,20.00
2019-01-08T11:14:15.555Z,24.00
2019-01-08T11:15:15.556Z,20.00
2019-01-08T11:16:15.544Z,20.00
2019-01-08T11:17:15.529Z,20.00
2019-01-08T11:18:15.549Z,16.00
2019-01-08T11:19:15.501Z,16.00
2019-01-08T11:20:15.510Z,24.00
2019-01-08T11:21:15.477Z,28.00
2019-01-08T11:22:15.460Z,28.00
2019-01-08T11:23:15.467Z,24.00
2019-01-08T11:24:15.437Z,20.00
2019-01-08T11:25:15.426Z,16.00
2019-01-08T11:26:15.477Z,16.00
2019-01-08T11:27:15.410Z,16.00
2019-01-08T11:28:15.393Z,16.00
2019-01-08T11:29:15.400Z,16.00
2019-01-08T11:30:15.369Z,16.00
2019-01-08T11:31:15.408Z,16.00
2019-01-08T11:32:15.348Z,16.00
2019-01-08T11:33:15.338Z,12.00
2019-01-08T11:34:15.341Z,16.00
2019-01-08T11:35:15.323Z,12.00
2019-01-08T11:36:15.330Z,12.00
2019-01-08T11:37:15.295Z,12.00
2019-01-08T11:38:15.290Z,8.00
2019-01-08T11:39:15.281Z,12.00
2019-01-08T11:40:15.262Z,8.00
2019-01-08T11:41:15.281Z,8.00
2019-01-08T11:42:15.273Z,12.00
2019-01-08T11:43:15.241Z,16.00
2019-01-08T11:44:15.218Z,20.00
2019-01-08T11:45:15.212Z,24.00
2019-01-08T11:46:15.251Z,32.00
2019-01-08T11:47:15.185Z,36.00
2019-01-08T11:48:15.256Z,44.00
2019-01-08T11:49:15.170Z,60.00
2019-01-08T11:50:15.150Z,68.00
2019-01-08T11:51:15.277Z,60.00
2019-01-08T11:52:15.125Z,56.00
2019-01-08T11:53:15.118Z,48.00
2019-01-08T11:54:15.126Z,36.00
2019-01-08T11:55:15.098Z,32.00
2019-01-08T11:56:15.107Z,28.00
2019-01-08T11:57:15.075Z,32.00
2019-01-08T11:58:15.059Z,32.00
2019-01-08T11:59:15.067Z,24.00
2019-01-08T12:00:15.036Z,20.00
2019-01-08T12:01:15.043Z,28.00
2019-01-08T12:02:15.016Z,44.00
2019-01-08T12:03:15.007Z,52.00
2019-01-08T12:04:14.990Z,72.00
2019-01-08T12:05:14.995Z,92.00
2019-01-08T12:06:14.998Z,108.00
2019-01-08T12:07:14.960Z,116.00
2019-01-08T12:08:14.946Z,140.00
2019-01-08T12:09:14.932Z,68.00
2019-01-08T12:10:14.927Z,52.00
2019-01-08T12:11:14.973Z,40.00
2019-01-08T12:12:14.914Z,24.00
2019-01-08T12:13:14.906Z,28.00
2019-01-08T12:14:14.879Z,40.00
2019-01-08T12:15:14.880Z,40.00
2019-01-08T12:16:14.868Z,40.00
2019-01-08T12:17:14.858Z,44.00
2019-01-08T12:18:14.862Z,44.00
2019-01-08T12:19:14.821Z,64.00
2019-01-08T12:20:14.830Z,112.00
2019-01-08T12:21:14.817Z,264.00
2019-01-08T12:22:14.793Z,264.00
2019-01-08T12:23:15.715Z,96.00
2019-01-08T12:24:14.776Z,172.00
2019-01-08T12:25:14.755Z,276.00
2019-01-08T12:26:14.756Z,112.00
2019-01-08T12:27:14.737Z,100.00
2019-01-08T12:28:14.726Z,80.00
2019-01-08T12:29:14.730Z,92.00
2019-01-08T12:30:14.704Z,88.00
2019-01-08T12:31:14.747Z,124.00
2019-01-08T12:32:14.678Z,104.00
2019-01-08T12:33:14.673Z,324.00
2019-01-08T12:34:14.658Z,352.00
2019-01-08T12:35:14.694Z,364.00
2019-01-08T12:36:14.634Z,152.00
2019-01-08T12:37:14.633Z,96.00
2019-01-08T12:38:14.612Z,76.00
2019-01-08T12:39:14.600Z,60.00
2019-01-08T12:40:14.602Z,44.00
2019-01-08T12:41:14.578Z,36.00
2019-01-08T12:42:14.583Z,24.00
2019-01-08T12:43:14.557Z,20.00
2019-01-08T12:44:14.545Z,16.00
2019-01-08T12:45:14.550Z,8.00
2019-01-08T12:46:14.529Z,12.00
2019-01-08T12:47:14.529Z,12.00
2019-01-08T12:48:14.502Z,12.00
2019-01-08T12:49:14.489Z,12.00
2019-01-08T12:50:14.482Z,8.00
2019-01-08T12:51:14.471Z,8.00
2019-01-08T12:52:14.469Z,12.00
2019-01-08T12:53:14.447Z,12.00
2019-01-08T12:54:14.432Z,12.00
2019-01-08T12:55:14.423Z,12.00
2019-01-08T12:56:14.415Z,16.00
2019-01-08T12:57:14.421Z,20.00
2019-01-08T12:58:14.392Z,24.00
2019-01-08T12:59:14.397Z,36.00
2019-01-08T13:00:14.365Z,32.00
2019-01-08T13:01:14.357Z,20.00
2019-01-08T13:02:15.043Z,16.00
2019-01-08T13:03:14.354Z,12.00
2019-01-08T13:04:14.322Z,12.00
2019-01-08T13:05:14.311Z,16.00
2019-01-08T13:06:14.358Z,20.00
2019-01-08T13:07:14.299Z,28.00
2019-01-08T13:08:14.295Z,36.00
2019-01-08T13:09:14.263Z,32.00
2019-01-08T13:10:14.256Z,32.00
2019-01-08T13:11:14.240Z,28.00